Time;durP1;ratioP1;P1;durP2;ratioP2;P2;SDS_P1;SDS_P2;PMS_P1;PMS_P2;Temp;Humidity;BMP_temperature;BMP_pressure;BME280_temperature;BME280_humidity;BME280_pressure;Samples;Min_cycle;Max_cycle;Signal;HPM_P1;HPM_P2
2022/06/28 00:01:02;;;;;;;;;;;;;;;;;;5081143;28;787;-64
2022/06/28 00:03:28;;;;;;;;;;;;;;;;;;5081665;28;864;-64
2022/06/28 00:05:53;;;;;;;;;;;;;;;;;;5081375;28;1020;-64
2022/06/28 00:08:18;;;;;;;;;;;;;;;;;;5081212;28;1207;-64
2022/06/28 00:10:43;;;;;;;;;;;;;;;;;;5081363;28;795;-64
2022/06/28 00:13:08;;;;;;;;;;;;;;;;;;5081469;28;917;-64
2022/06/28 00:18:18;;;;;;;;;;;;;;;;;;5081560;28;1321;-64
2022/06/28 00:20:43;;;;;;;;;;;;;;;;;;5081295;28;1894;-64
2022/06/28 00:23:08;;;;;;;;;;;;;;;;;;5081533;28;825;-64
2022/06/28 00:25:33;;;;;;;;;;;;;;;;;;5081369;28;890;-64
2022/06/28 00:27:58;;;;;;;;;;;;;;;;;;5080878;28;1184;-64
2022/06/28 00:30:27;;;;;;;;;;;;;;;;;;5081301;28;806;-64
2022/06/28 00:32:52;;;;;;;;;;;;;;;;;;5081093;28;783;-64
2022/06/28 00:35:17;;;;;;;;;;;;;;;;;;5081054;28;1043;-64
2022/06/28 00:37:44;;;;;;;;;;;;;;;;;;5080746;28;1275;-64
2022/06/28 00:40:09;;;;;;;;;;;;;;;;;;5081077;28;1877;-64
2022/06/28 00:42:35;;;;;;;;;;;;;;;;;;5079613;28;1342;-64
2022/06/28 00:45:01;;;;;;;;;;;;;;;;;;5081159;28;842;-64
2022/06/28 00:47:26;;;;;;;;;;;;;;;;;;5080698;28;1271;-64
2022/06/28 00:49:52;;;;;;;;;;;;;;;;;;5080890;28;855;-64
2022/06/28 00:52:17;;;;;;;;;;;;;;;;;;5081031;28;1023;-64
2022/06/28 00:54:42;;;;;;;;;;;;;;;;;;5080860;28;988;-64
2022/06/28 00:57:07;;;;;;;;;;;;;;;;;;5080650;28;1258;-64
2022/06/28 00:59:33;;;;;;;;;;;;;;;;;;5080691;28;1898;-64
2022/06/28 01:01:59;;;;;;;;;;;;;;;;;;5080853;28;905;-64
2022/06/28 01:04:24;;;;;;;;;;;;;;;;;;5080621;28;865;-64
2022/06/28 01:06:50;;;;;;;;;;;;;;;;;;5079403;28;1258;-64
2022/06/28 01:09:15;;;;;;;;;;;;;;;;;;5080831;28;877;-64
2022/06/28 01:11:40;;;;;;;;;;;;;;;;;;5081549;28;933;-64
2022/06/28 01:14:07;;;;;;;;;;;;;;;;;;5084315;28;917;-64
2022/06/28 01:16:32;;;;;;;;;;;;;;;;;;5082657;28;1164;-64
2022/06/28 01:18:58;;;;;;;;;;;;;;;;;;5084400;28;1889;-64
2022/06/28 01:21:30;;;;;;;;;;;;;;;;;;5083956;28;933;-64
2022/06/28 01:23:56;;;;;;;;;;;;;;;;;;5084109;28;825;-64
2022/06/28 01:26:22;;;;;;;;;;;;;;;;;;5083765;28;1183;-64
2022/06/28 01:28:51;;;;;;;;;;;;;;;;;;5084127;28;826;-64
2022/06/28 01:31:16;;;;;;;;;;;;;;;;;;5083825;28;988;-64
2022/06/28 01:33:42;;;;;;;;;;;;;;;;;;5084014;28;889;-64
2022/06/28 01:36:08;;;;;;;;;;;;;;;;;;5083907;28;1396;-64
2022/06/28 01:38:33;;;;;;;;;;;;;;;;;;5083734;28;1897;-64
2022/06/28 01:40:58;;;;;;;;;;;;;;;;;;5083655;28;1004;-64
2022/06/28 01:43:24;;;;;;;;;;;;;;;;;;5083739;28;988;-64
2022/06/28 01:45:50;;;;;;;;;;;;;;;;;;5083656;28;1020;-64
2022/06/28 01:48:18;;;;;;;;;;;;;;;;;;5083348;28;1175;-64
2022/06/28 01:50:43;;;;;;;;;;;;;;;;;;5083974;28;877;-64
2022/06/28 01:53:08;;;;;;;;;;;;;;;;;;5083462;28;976;-63
2022/06/28 01:55:33;;;;;;;;;;;;;;;;;;5083738;28;806;-64
2022/06/28 01:57:59;;;;;;;;;;;;;;;;;;5083334;28;1274;-64
2022/06/28 02:00:25;;;;;;;;;;;;;;;;;;5083509;28;1902;-64
2022/06/28 02:02:50;;;;;;;;;;;;;;;;;;5083360;28;993;-64
2022/06/28 02:05:15;;;;;;;;;;;;;;;;;;5083527;28;913;-64
2022/06/28 02:07:50;;;;;;;;;;;;;;;;;;5083094;28;1294;-64
2022/06/28 02:10:15;;;;;;;;;;;;;;;;;;5083414;28;1806;-64
2022/06/28 02:12:41;;;;;;;;;;;;;;;;;;5083132;28;880;-64
2022/06/28 02:15:06;;;;;;;;;;;;;;;;;;5083244;28;944;-64
2022/06/28 02:17:31;;;;;;;;;;;;;;;;;;5083178;28;1269;-64
2022/06/28 02:19:56;;;;;;;;;;;;;;;;;;5083460;28;1895;-64
2022/06/28 02:22:21;;;;;;;;;;;;;;;;;;5083228;28;1193;-64
2022/06/28 02:24:48;;;;;;;;;;;;;;;;;;5082993;28;877;-64
2022/06/28 02:27:13;;;;;;;;;;;;;;;;;;5082818;28;1201;-64
2022/06/28 02:29:39;;;;;;;;;;;;;;;;;;5083395;28;806;-64
2022/06/28 02:32:04;;;;;;;;;;;;;;;;;;5083298;28;821;-64
2022/06/28 02:42:41;;;;;;;;;;;;;;;;;;5082986;28;616;-65
2022/06/28 02:45:07;;;;;;;;;;;;;;;;;;5082625;28;912;-62
2022/06/28 02:47:32;;;;;;;;;;;;;;;;;;5082532;28;1251;-62
2022/06/28 02:49:57;;;;;;;;;;;;;;;;;;5082635;28;996;-63
2022/06/28 02:52:22;;;;;;;;;;;;;;;;;;5082825;28;968;-63
2022/06/28 02:54:47;;;;;;;;;;;;;;;;;;5082750;28;830;-63
2022/06/28 02:57:13;;;;;;;;;;;;;;;;;;5082386;28;1195;-63
2022/06/28 02:59:38;;;;;;;;;;;;;;;;;;5082681;28;1894;-63
2022/06/28 03:02:03;;;;;;;;;;;;;;;;;;5082643;28;818;-63
2022/06/28 03:04:28;;;;;;;;;;;;;;;;;;5081279;28;834;-63
2022/06/28 03:06:54;;;;;;;;;;;;;;;;;;5082189;28;1188;-63
2022/06/28 03:09:19;;;;;;;;;;;;;;;;;;5082516;28;893;-63
2022/06/28 03:11:44;;;;;;;;;;;;;;;;;;5082220;28;853;-63
2022/06/28 03:14:09;;;;;;;;;;;;;;;;;;5082360;28;984;-63
2022/06/28 03:16:34;;;;;;;;;;;;;;;;;;5081833;28;1219;-63
2022/06/28 03:18:59;;;;;;;;;;;;;;;;;;5082759;28;1894;-64
2022/06/28 03:21:25;;;;;;;;;;;;;;;;;;5082123;28;988;-63
2022/06/28 03:23:50;;;;;;;;;;;;;;;;;;5082492;28;857;-64
2022/06/28 03:26:15;;;;;;;;;;;;;;;;;;5081903;28;1164;-63
2022/06/28 03:28:40;;;;;;;;;;;;;;;;;;5081961;28;1180;-63
2022/06/28 03:31:06;;;;;;;;;;;;;;;;;;5082178;28;894;-63
2022/06/28 03:33:31;;;;;;;;;;;;;;;;;;5081902;28;897;-63
2022/06/28 03:35:57;;;;;;;;;;;;;;;;;;5081406;28;806;-63
2022/06/28 03:38:22;;;;;;;;;;;;;;;;;;5081907;28;1373;-63
2022/06/28 03:40:47;;;;;;;;;;;;;;;;;;5081886;28;1958;-63
2022/06/28 03:43:12;;;;;;;;;;;;;;;;;;5081771;28;902;-63
2022/06/28 03:45:37;;;;;;;;;;;;;;;;;;5082055;28;894;-63
2022/06/28 03:48:03;;;;;;;;;;;;;;;;;;5081353;28;1227;-63
2022/06/28 03:50:28;;;;;;;;;;;;;;;;;;5082088;28;857;-63
2022/06/28 03:52:53;;;;;;;;;;;;;;;;;;5081887;28;976;-63
2022/06/28 03:55:18;;;;;;;;;;;;;;;;;;5081649;28;870;-63
2022/06/28 03:57:43;;;;;;;;;;;;;;;;;;5081462;28;1325;-64
2022/06/28 04:00:09;;;;;;;;;;;;;;;;;;5081446;28;1898;-64
2022/06/28 04:02:35;;;;;;;;;;;;;;;;;;5081761;28;830;-64
2022/06/28 04:05:00;;;;;;;;;;;;;;;;;;5081686;28;872;-64
2022/06/28 04:07:25;;;;;;;;;;;;;;;;;;5081393;28;1262;-65
2022/06/28 04:09:50;;;;;;;;;;;;;;;;;;5081425;28;1004;-62
2022/06/28 04:12:16;;;;;;;;;;;;;;;;;;5081534;28;917;-63
2022/06/28 04:14:41;;;;;;;;;;;;;;;;;;5081259;28;837;-64
2022/06/28 04:17:07;;;;;;;;;;;;;;;;;;5081182;28;1247;-63
2022/06/28 04:19:32;;;;;;;;;;;;;;;;;;5081371;28;1975;-64
2022/06/28 04:21:57;;;;;;;;;;;;;;;;;;5081391;28;929;-64
2022/06/28 04:24:22;;;;;;;;;;;;;;;;;;5081252;28;848;-64
2022/06/28 04:26:47;;;;;;;;;;;;;;;;;;5080888;28;1138;-64
2022/06/28 04:29:13;;;;;;;;;;;;;;;;;;5081377;28;1043;-64
2022/06/28 04:31:38;;;;;;;;;;;;;;;;;;5081097;28;857;-63
2022/06/28 04:34:03;;;;;;;;;;;;;;;;;;5081162;28;988;-64
2022/06/28 04:36:28;;;;;;;;;;;;;;;;;;5080786;28;1192;-64
2022/06/28 04:38:54;;;;;;;;;;;;;;;;;;5081333;28;1897;-64
2022/06/28 04:41:23;;;;;;;;;;;;;;;;;;5080828;28;1053;-64
2022/06/28 04:43:49;;;;;;;;;;;;;;;;;;5081201;28;868;-64
2022/06/28 04:46:14;;;;;;;;;;;;;;;;;;5080863;28;1179;-64
2022/06/28 04:48:39;;;;;;;;;;;;;;;;;;5084647;28;793;-64
2022/06/28 04:51:13;;;;;;;;;;;;;;;;;;5084744;28;791;-64
2022/06/28 04:53:42;;;;;;;;;;;;;;;;;;5084508;28;868;-64
2022/06/28 04:56:08;;;;;;;;;;;;;;;;;;5084474;28;1187;-64
2022/06/28 04:58:33;;;;;;;;;;;;;;;;;;5084253;28;1955;-64
2022/06/28 05:00:59;;;;;;;;;;;;;;;;;;5084563;28;1024;-64
2022/06/28 05:03:24;;;;;;;;;;;;;;;;;;5084282;28;948;-64
2022/06/28 05:05:49;;;;;;;;;;;;;;;;;;5084539;28;857;-64
2022/06/28 05:08:14;;;;;;;;;;;;;;;;;;5083897;28;1282;-64
2022/06/28 05:10:40;;;;;;;;;;;;;;;;;;5084385;28;980;-64
2022/06/28 05:13:05;;;;;;;;;;;;;;;;;;5084118;28;897;-64
2022/06/28 05:15:30;;;;;;;;;;;;;;;;;;5084237;28;814;-63
2022/06/28 05:17:55;;;;;;;;;;;;;;;;;;5083893;28;1242;-64
2022/06/28 05:20:20;;;;;;;;;;;;;;;;;;5084105;28;1961;-64
2022/06/28 05:22:46;;;;;;;;;;;;;;;;;;5082778;28;1135;-64
2022/06/28 05:25:11;;;;;;;;;;;;;;;;;;5083723;28;901;-64
2022/06/28 05:27:36;;;;;;;;;;;;;;;;;;5084073;28;1191;-62
2022/06/28 05:30:01;;;;;;;;;;;;;;;;;;5083820;28;992;-63
2022/06/28 05:32:27;;;;;;;;;;;;;;;;;;5083973;28;822;-63
2022/06/28 05:34:52;;;;;;;;;;;;;;;;;;5083591;28;814;-63
2022/06/28 05:37:17;;;;;;;;;;;;;;;;;;5083721;28;1196;-63
2022/06/28 05:39:42;;;;;;;;;;;;;;;;;;5083637;28;1976;-64
2022/06/28 05:42:08;;;;;;;;;;;;;;;;;;5084127;28;837;-63
2022/06/28 05:44:33;;;;;;;;;;;;;;;;;;5083904;28;999;-63
2022/06/28 05:46:58;;;;;;;;;;;;;;;;;;5083498;28;1278;-63
2022/06/28 05:49:23;;;;;;;;;;;;;;;;;;5083791;28;806;-63
2022/06/28 05:51:48;;;;;;;;;;;;;;;;;;5083430;28;1003;-64
2022/06/28 05:54:14;;;;;;;;;;;;;;;;;;5083661;28;902;-63
2022/06/28 05:56:39;;;;;;;;;;;;;;;;;;5083001;28;1203;-63
2022/06/28 05:59:04;;;;;;;;;;;;;;;;;;5083050;28;1910;-63
2022/06/28 06:01:30;;;;;;;;;;;;;;;;;;5083407;28;821;-63
2022/06/28 06:03:56;;;;;;;;;;;;;;;;;;5083707;28;885;-63
2022/06/28 06:06:23;;;;;;;;;;;;;;;;;;5081858;28;1768;-63
2022/06/28 06:08:48;;;;;;;;;;;;;;;;;;5083457;28;896;-63
2022/06/28 06:11:14;;;;;;;;;;;;;;;;;;5083249;28;786;-63
2022/06/28 06:13:39;;;;;;;;;;;;;;;;;;5083461;28;928;-63
2022/06/28 06:16:04;;;;;;;;;;;;;;;;;;5083276;28;1179;-63
2022/06/28 06:18:29;;;;;;;;;;;;;;;;;;5083158;28;861;-63
2022/06/28 06:20:55;;;;;;;;;;;;;;;;;;5083133;28;1914;-64
2022/06/28 06:23:20;;;;;;;;;;;;;;;;;;5082977;28;992;-63
2022/06/28 06:25:45;;;;;;;;;;;;;;;;;;5090990;28;1036;-63
2022/06/28 06:28:10;;;;;;;;;;;;;;;;;;5102947;28;1159;-63
2022/06/28 06:30:36;;;;;;;;;;;;;;;;;;5103460;28;929;-63
2022/06/28 06:33:01;;;;;;;;;;;;;;;;;;5103211;28;837;-63
2022/06/28 06:35:27;;;;;;;;;;;;;;;;;;5103186;28;944;-63
2022/06/28 06:37:53;;;;;;;;;;;;;;;;;;5102663;28;1277;-63
2022/06/28 06:40:19;;;;;;;;;;;;;;;;;;5103121;28;1968;-63
2022/06/28 06:42:44;;;;;;;;;;;;;;;;;;5103074;28;838;-63
2022/06/28 06:45:10;;;;;;;;;;;;;;;;;;5103117;28;794;-63
2022/06/28 06:47:35;;;;;;;;;;;;;;;;;;5102817;28;1172;-63
2022/06/28 06:50:01;;;;;;;;;;;;;;;;;;5102936;28;845;-63
2022/06/28 06:52:26;;;;;;;;;;;;;;;;;;5103237;28;842;-63
2022/06/28 06:54:51;;;;;;;;;;;;;;;;;;5101582;28;1080;-63
2022/06/28 06:57:16;;;;;;;;;;;;;;;;;;5102573;28;1278;-63
2022/06/28 06:59:42;;;;;;;;;;;;;;;;;;5101453;28;1893;-63
2022/06/28 07:02:08;;;;;;;;;;;;;;;;;;5101792;28;822;-63
2022/06/28 07:04:33;;;;;;;;;;;;;;;;;;5102747;28;818;-63
2022/06/28 07:07:00;;;;;;;;;;;;;;;;;;5102365;28;1156;-63
2022/06/28 07:09:25;;;;;;;;;;;;;;;;;;5101801;28;842;-63
2022/06/28 07:11:50;;;;;;;;;;;;;;;;;;5102936;28;853;-63
2022/06/28 07:14:16;;;;;;;;;;;;;;;;;;5102746;28;921;-62
2022/06/28 07:16:41;;;;;;;;;;;;;;;;;;5102057;28;1195;-63
2022/06/28 07:19:06;;;;;;;;;;;;;;;;;;5102619;28;1947;-62
2022/06/28 07:21:31;;;;;;;;;;;;;;;;;;5102268;28;854;-62
2022/06/28 07:23:57;;;;;;;;;;;;;;;;;;5102825;28;822;-62
2022/06/28 07:26:23;;;;;;;;;;;;;;;;;;5102002;28;1187;-63
2022/06/28 07:28:48;;;;;;;;;;;;;;;;;;5102462;28;833;-63
2022/06/28 07:31:15;;;;;;;;;;;;;;;;;;5102264;28;794;-63
2022/06/28 07:33:40;;;;;;;;;;;;;;;;;;5102323;28;880;-63
2022/06/28 07:36:06;;;;;;;;;;;;;;;;;;5101859;28;1290;-63
2022/06/28 07:38:31;;;;;;;;;;;;;;;;;;5102349;28;799;-63
2022/06/28 07:40:57;;;;;;;;;;;;;;;;;;5102210;28;1894;-63
2022/06/28 07:43:23;;;;;;;;;;;;;;;;;;5102422;28;755;-63
2022/06/28 07:45:48;;;;;;;;;;;;;;;;;;5102498;28;964;-63
2022/06/28 07:48:14;;;;;;;;;;;;;;;;;;5101886;28;1155;-63
2022/06/28 07:53:23;;;;;;;;;;;;;;;;;;5102289;28;608;-63
2022/06/28 07:55:48;;;;;;;;;;;;;;;;;;5102038;28;1035;-63
2022/06/28 07:58:13;;;;;;;;;;;;;;;;;;5101461;28;1251;-63
2022/06/28 08:00:39;;;;;;;;;;;;;;;;;;5102041;28;1964;-63
2022/06/28 08:03:05;;;;;;;;;;;;;;;;;;5101756;28;1035;-63
2022/06/28 08:05:30;;;;;;;;;;;;;;;;;;5101913;28;868;-63
2022/06/28 08:07:55;;;;;;;;;;;;;;;;;;5101301;28;1183;-63
2022/06/28 08:10:21;;;;;;;;;;;;;;;;;;5100602;28;945;-63
2022/06/28 08:12:47;;;;;;;;;;;;;;;;;;5101816;28;876;-63
2022/06/28 08:15:12;;;;;;;;;;;;;;;;;;5101688;28;810;-63
2022/06/28 08:17:37;;;;;;;;;;;;;;;;;;5101636;28;1351;-63
2022/06/28 08:20:03;;;;;;;;;;;;;;;;;;5101308;28;1901;-63
2022/06/28 08:22:28;;;;;;;;;;;;;;;;;;5101719;28;860;-65
2022/06/28 08:24:53;;;;;;;;;;;;;;;;;;5101642;28;836;-62
2022/06/28 08:27:18;;;;;;;;;;;;;;;;;;5101271;28;1285;-63
2022/06/28 08:29:45;;;;;;;;;;;;;;;;;;5101768;28;967;-64
2022/06/28 08:32:11;;;;;;;;;;;;;;;;;;5100261;28;826;-63
2022/06/28 08:34:36;;;;;;;;;;;;;;;;;;5101306;28;925;-63
2022/06/28 08:37:02;;;;;;;;;;;;;;;;;;5101106;28;1286;-63
2022/06/28 08:39:27;;;;;;;;;;;;;;;;;;5101249;28;1969;-63
2022/06/28 08:41:53;;;;;;;;;;;;;;;;;;5100323;28;1075;-62
2022/06/28 08:44:18;;;;;;;;;;;;;;;;;;5101529;28;1004;-63
2022/06/28 08:46:45;;;;;;;;;;;;;;;;;;5100792;28;1269;-63
2022/06/28 08:49:14;;;;;;;;;;;;;;;;;;5101611;28;849;-63
2022/06/28 08:51:41;;;;;;;;;;;;;;;;;;5101573;28;821;-63
2022/06/28 08:54:06;;;;;;;;;;;;;;;;;;5101562;28;893;-63
2022/06/28 08:56:32;;;;;;;;;;;;;;;;;;5100634;28;1277;-63
2022/06/28 08:58:58;;;;;;;;;;;;;;;;;;5101290;28;1898;-63
2022/06/28 09:01:23;;;;;;;;;;;;;;;;;;5100916;28;841;-63
2022/06/28 09:03:50;;;;;;;;;;;;;;;;;;5101185;28;1012;-63
2022/06/28 09:06:15;;;;;;;;;;;;;;;;;;5100736;28;1179;-63
2022/06/28 09:08:40;;;;;;;;;;;;;;;;;;5101064;28;988;-63
2022/06/28 09:11:06;;;;;;;;;;;;;;;;;;5101073;28;904;-63
2022/06/28 09:13:34;;;;;;;;;;;;;;;;;;5100913;28;881;-62
2022/06/28 09:16:01;;;;;;;;;;;;;;;;;;5100863;28;1265;-63
2022/06/28 09:18:42;;;;;;;;;;;;;;;;;;5100615;28;861;-63
2022/06/28 09:21:08;;;;;;;;;;;;;;;;;;5101027;28;833;-62
2022/06/28 09:23:35;;;;;;;;;;;;;;;;;;5100757;28;865;-63
2022/06/28 09:26:07;;;;;;;;;;;;;;;;;;5100848;28;1262;-63
2022/06/28 09:28:33;;;;;;;;;;;;;;;;;;5100552;28;935;-62
2022/06/28 09:31:17;;;;;;;;;;;;;;;;;;5100739;28;1765;-63
2022/06/28 09:33:43;;;;;;;;;;;;;;;;;;5102740;28;908;-63
2022/06/28 09:39:16;;;;;;;;;;;;;;;;;;5104032;28;1901;-63
2022/06/28 09:41:45;;;;;;;;;;;;;;;;;;5104239;28;850;-62
2022/06/28 09:44:10;;;;;;;;;;;;;;;;;;5104017;28;809;-63
2022/06/28 09:46:35;;;;;;;;;;;;;;;;;;5104085;28;1176;-62
2022/06/28 09:49:02;;;;;;;;;;;;;;;;;;5103915;28;929;-63
2022/06/28 09:51:29;;;;;;;;;;;;;;;;;;5103920;28;872;-63
2022/06/28 09:53:57;;;;;;;;;;;;;;;;;;5104150;28;897;-63
2022/06/28 09:56:23;;;;;;;;;;;;;;;;;;5089497;28;2232;-63
2022/06/28 09:58:49;;;;;;;;;;;;;;;;;;5082332;28;1955;-62
2022/06/28 10:01:14;;;;;;;;;;;;;;;;;;5083372;28;901;-63
2022/06/28 10:03:40;;;;;;;;;;;;;;;;;;5083624;28;913;-61
2022/06/28 10:06:05;;;;;;;;;;;;;;;;;;5083135;28;1194;-63
2022/06/28 10:08:31;;;;;;;;;;;;;;;;;;5083245;28;779;-63
2022/06/28 10:10:56;;;;;;;;;;;;;;;;;;5083399;28;967;-62
2022/06/28 10:16:19;;;;;;;;;;;;;;;;;;5083456;28;1195;-63
2022/06/28 10:18:45;;;;;;;;;;;;;;;;;;5083208;28;1906;-63
2022/06/28 10:21:10;;;;;;;;;;;;;;;;;;5083071;28;787;-63
2022/06/28 10:23:42;;;;;;;;;;;;;;;;;;5083281;28;961;-63
2022/06/28 10:26:11;;;;;;;;;;;;;;;;;;5083020;28;1179;-62
2022/06/28 10:28:37;;;;;;;;;;;;;;;;;;5083048;28;834;-62
2022/06/28 10:31:20;;;;;;;;;;;;;;;;;;5082903;28;901;-63
2022/06/28 10:33:46;;;;;;;;;;;;;;;;;;5082998;28;968;-63
2022/06/28 10:36:12;;;;;;;;;;;;;;;;;;5083181;28;1317;-63
2022/06/28 10:38:38;;;;;;;;;;;;;;;;;;5082711;28;864;-63
2022/06/28 10:41:13;;;;;;;;;;;;;;;;;;5082884;28;1939;-63
2022/06/28 10:43:43;;;;;;;;;;;;;;;;;;5082615;28;897;-63
2022/06/28 10:46:09;;;;;;;;;;;;;;;;;;5081440;28;1377;-63
2022/06/28 10:48:58;;;;;;;;;;;;;;;;;;5082500;28;806;-63
2022/06/28 10:51:23;;;;;;;;;;;;;;;;;;5074460;28;1834;-63
2022/06/28 10:53:54;;;;;;;;;;;;;;;;;;5082571;28;921;-63
2022/06/28 10:56:20;;;;;;;;;;;;;;;;;;5082420;28;1251;-63
2022/06/28 10:58:54;;;;;;;;;;;;;;;;;;5082310;28;957;-63
2022/06/28 11:01:40;;;;;;;;;;;;;;;;;;5082655;28;896;-63
2022/06/28 11:04:11;;;;;;;;;;;;;;;;;;5082375;28;1808;-63
2022/06/28 11:06:40;;;;;;;;;;;;;;;;;;5082153;28;1163;-63
2022/06/28 11:09:12;;;;;;;;;;;;;;;;;;5082400;28;810;-63
2022/06/28 11:11:58;;;;;;;;;;;;;;;;;;5082562;28;904;-62
2022/06/28 11:14:27;;;;;;;;;;;;;;;;;;5082237;28;1137;-63
2022/06/28 11:16:53;;;;;;;;;;;;;;;;;;5082022;28;1174;-63
2022/06/28 11:19:18;;;;;;;;;;;;;;;;;;5081975;28;1894;-63
2022/06/28 11:21:44;;;;;;;;;;;;;;;;;;5082375;28;849;-62
2022/06/28 11:24:09;;;;;;;;;;;;;;;;;;5082184;28;877;-63
2022/06/28 11:29:18;;;;;;;;;;;;;;;;;;5082298;28;633;-62
2022/06/28 11:31:43;;;;;;;;;;;;;;;;;;5082044;28;1034;-64
2022/06/28 11:34:09;;;;;;;;;;;;;;;;;;5082031;28;1155;-64
2022/06/28 11:36:34;;;;;;;;;;;;;;;;;;5081697;28;1195;-64
2022/06/28 11:39:03;;;;;;;;;;;;;;;;;;5081973;28;1905;-64
2022/06/28 11:41:29;;;;;;;;;;;;;;;;;;5081834;28;877;-64
2022/06/28 11:43:56;;;;;;;;;;;;;;;;;;5082094;28;813;-64
2022/06/28 11:46:22;;;;;;;;;;;;;;;;;;5081645;28;1298;-63
2022/06/28 11:48:48;;;;;;;;;;;;;;;;;;5081912;28;794;-64
2022/06/28 11:51:23;;;;;;;;;;;;;;;;;;5081670;28;926;-64
2022/06/28 11:53:49;;;;;;;;;;;;;;;;;;5082069;28;885;-64
2022/06/28 11:56:14;;;;;;;;;;;;;;;;;;5080867;28;1191;-64
2022/06/28 11:58:39;;;;;;;;;;;;;;;;;;5081620;28;995;-64
2022/06/28 12:01:08;;;;;;;;;;;;;;;;;;5081604;28;1914;-63
2022/06/28 12:03:43;;;;;;;;;;;;;;;;;;5081711;28;1012;-63
2022/06/28 12:06:12;;;;;;;;;;;;;;;;;;5081662;28;1163;-63
2022/06/28 12:08:42;;;;;;;;;;;;;;;;;;5081271;28;960;-63
2022/06/28 12:11:07;;;;;;;;;;;;;;;;;;5081531;28;790;-63
2022/06/28 12:13:33;;;;;;;;;;;;;;;;;;5081392;28;1062;-63
2022/06/28 12:15:58;;;;;;;;;;;;;;;;;;5081395;28;1175;-63
2022/06/28 12:18:23;;;;;;;;;;;;;;;;;;5085804;28;1051;-63
2022/06/28 12:20:57;;;;;;;;;;;;;;;;;;5101716;28;1968;-63
2022/06/28 12:23:22;;;;;;;;;;;;;;;;;;5101428;28;814;-63
2022/06/28 12:25:57;;;;;;;;;;;;;;;;;;5101669;28;818;-63
2022/06/28 12:28:22;;;;;;;;;;;;;;;;;;5101342;28;1305;-63
2022/06/28 12:30:47;;;;;;;;;;;;;;;;;;5101857;28;1062;-63
2022/06/28 12:33:12;;;;;;;;;;;;;;;;;;5101376;28;1086;-63
2022/06/28 12:35:39;;;;;;;;;;;;;;;;;;5101537;28;924;-64
2022/06/28 12:38:04;;;;;;;;;;;;;;;;;;5101112;28;1215;-63
2022/06/28 12:40:30;;;;;;;;;;;;;;;;;;5101228;28;1909;-63
2022/06/28 12:42:55;;;;;;;;;;;;;;;;;;5101516;28;1001;-63
2022/06/28 12:45:20;;;;;;;;;;;;;;;;;;5100857;28;1020;-63
2022/06/28 12:47:45;;;;;;;;;;;;;;;;;;5101141;28;1270;-63
2022/06/28 12:50:13;;;;;;;;;;;;;;;;;;5101136;28;837;-63
2022/06/28 12:52:39;;;;;;;;;;;;;;;;;;5101404;28;901;-63
2022/06/28 12:55:05;;;;;;;;;;;;;;;;;;5100842;28;849;-63
2022/06/28 12:57:30;;;;;;;;;;;;;;;;;;5099624;28;1501;-63
2022/06/28 12:59:56;;;;;;;;;;;;;;;;;;5100943;28;1965;-64
2022/06/28 13:02:21;;;;;;;;;;;;;;;;;;5101374;28;869;-63
2022/06/28 13:04:47;;;;;;;;;;;;;;;;;;5101159;28;965;-63
2022/06/28 13:07:13;;;;;;;;;;;;;;;;;;5100682;28;1300;-63
2022/06/28 13:09:38;;;;;;;;;;;;;;;;;;5105021;28;806;-63
2022/06/28 13:12:04;;;;;;;;;;;;;;;;;;5104510;28;810;-63
2022/06/28 13:14:29;;;;;;;;;;;;;;;;;;5104564;28;822;-63
2022/06/28 13:16:54;;;;;;;;;;;;;;;;;;5104067;28;1203;-63
2022/06/28 13:19:19;;;;;;;;;;;;;;;;;;5104593;28;1963;-63
2022/06/28 13:21:47;;;;;;;;;;;;;;;;;;5104360;28;945;-63
2022/06/28 13:24:12;;;;;;;;;;;;;;;;;;5104765;28;897;-63
2022/06/28 13:26:38;;;;;;;;;;;;;;;;;;5103916;28;1207;-63
2022/06/28 13:29:03;;;;;;;;;;;;;;;;;;5104459;28;828;-63
2022/06/28 13:31:28;;;;;;;;;;;;;;;;;;5104291;28;845;-64
2022/06/28 13:33:53;;;;;;;;;;;;;;;;;;5103399;28;1071;-64
2022/06/28 13:36:19;;;;;;;;;;;;;;;;;;5084031;28;1330;-63
2022/06/28 13:38:44;;;;;;;;;;;;;;;;;;5084067;28;972;-63
2022/06/28 13:41:10;;;;;;;;;;;;;;;;;;5084178;28;1960;-63
2022/06/28 13:43:35;;;;;;;;;;;;;;;;;;5083703;28;834;-63
2022/06/28 13:46:02;;;;;;;;;;;;;;;;;;5084097;28;1171;-63
2022/06/28 13:48:27;;;;;;;;;;;;;;;;;;5083412;28;917;-63
2022/06/28 13:50:53;;;;;;;;;;;;;;;;;;5083731;28;798;-63
2022/06/28 13:53:18;;;;;;;;;;;;;;;;;;5083469;28;1000;-63
2022/06/28 13:55:45;;;;;;;;;;;;;;;;;;5082349;28;1459;-63
2022/06/28 13:58:12;;;;;;;;;;;;;;;;;;5083344;28;1297;-63
2022/06/28 14:00:38;;;;;;;;;;;;;;;;;;5083720;28;1898;-64
2022/06/28 14:03:03;;;;;;;;;;;;;;;;;;5083620;28;869;-63
2022/06/28 14:05:29;;;;;;;;;;;;;;;;;;5083399;28;798;-63
2022/06/28 14:07:54;;;;;;;;;;;;;;;;;;5083265;28;1275;-63
2022/06/28 14:10:19;;;;;;;;;;;;;;;;;;5083246;28;992;-63
2022/06/28 14:12:44;;;;;;;;;;;;;;;;;;5083511;28;802;-63
2022/06/28 14:15:10;;;;;;;;;;;;;;;;;;5083069;28;949;-64
2022/06/28 14:17:35;;;;;;;;;;;;;;;;;;5083136;28;1183;-63
2022/06/28 14:20:00;;;;;;;;;;;;;;;;;;5082658;28;1972;-63
2022/06/28 14:22:25;;;;;;;;;;;;;;;;;;5083086;28;747;-63
2022/06/28 14:24:51;;;;;;;;;;;;;;;;;;5083023;28;806;-63
2022/06/28 14:27:16;;;;;;;;;;;;;;;;;;5082831;28;1191;-63
2022/06/28 14:29:42;;;;;;;;;;;;;;;;;;5083274;28;984;-63
2022/06/28 14:32:07;;;;;;;;;;;;;;;;;;5082990;28;1093;-63
2022/06/28 14:34:33;;;;;;;;;;;;;;;;;;5082958;28;949;-63
2022/06/28 14:36:58;;;;;;;;;;;;;;;;;;5082587;28;1187;-63
2022/06/28 14:39:23;;;;;;;;;;;;;;;;;;5083104;28;1902;-63
2022/06/28 14:41:49;;;;;;;;;;;;;;;;;;5082795;28;858;-63
2022/06/28 14:44:14;;;;;;;;;;;;;;;;;;5083080;28;834;-63
2022/06/28 14:46:39;;;;;;;;;;;;;;;;;;5082357;28;1207;-63
2022/06/28 14:49:04;;;;;;;;;;;;;;;;;;5083247;28;885;-63
2022/06/28 14:51:30;;;;;;;;;;;;;;;;;;5082518;28;861;-63
2022/06/28 14:53:55;;;;;;;;;;;;;;;;;;5082922;28;988;-63
2022/06/28 14:56:21;;;;;;;;;;;;;;;;;;5082183;28;1196;-63
2022/06/28 14:58:46;;;;;;;;;;;;;;;;;;5082683;28;885;-62
2022/06/28 15:01:11;;;;;;;;;;;;;;;;;;5081390;28;1915;-62
2022/06/28 15:03:36;;;;;;;;;;;;;;;;;;5082490;28;1043;-63
2022/06/28 15:06:01;;;;;;;;;;;;;;;;;;5082386;28;1255;-62
2022/06/28 15:08:27;;;;;;;;;;;;;;;;;;5082412;28;790;-63
2022/06/28 15:10:52;;;;;;;;;;;;;;;;;;5082535;28;988;-63
2022/06/28 15:13:18;;;;;;;;;;;;;;;;;;5082353;28;965;-63
2022/06/28 15:15:44;;;;;;;;;;;;;;;;;;5082791;28;880;-63
2022/06/28 15:18:09;;;;;;;;;;;;;;;;;;5081988;28;1205;-64
2022/06/28 15:20:35;;;;;;;;;;;;;;;;;;5082288;28;1890;-64
2022/06/28 15:31:12;;;;;;;;;;;;;;;;;;5081506;28;686;-63
2022/06/28 15:33:37;;;;;;;;;;;;;;;;;;5082009;28;992;-63
2022/06/28 15:36:05;;;;;;;;;;;;;;;;;;5082144;28;1211;-63
2022/06/28 15:38:30;;;;;;;;;;;;;;;;;;5082129;28;809;-63
2022/06/28 15:40:56;;;;;;;;;;;;;;;;;;5081816;28;1893;-63
2022/06/28 15:43:21;;;;;;;;;;;;;;;;;;5082175;28;830;-63
2022/06/28 15:45:46;;;;;;;;;;;;;;;;;;5081524;28;988;-63
2022/06/28 15:48:12;;;;;;;;;;;;;;;;;;5081776;28;1171;-63
2022/06/28 15:50:37;;;;;;;;;;;;;;;;;;5081675;28;881;-63
2022/06/28 15:53:03;;;;;;;;;;;;;;;;;;5081900;28;795;-63
2022/06/28 15:55:29;;;;;;;;;;;;;;;;;;5081579;28;945;-63
2022/06/28 15:57:55;;;;;;;;;;;;;;;;;;5081557;28;1293;-63
2022/06/28 16:00:20;;;;;;;;;;;;;;;;;;5081441;28;1951;-63
2022/06/28 16:02:46;;;;;;;;;;;;;;;;;;5081815;28;861;-64
2022/06/28 16:05:11;;;;;;;;;;;;;;;;;;5081656;28;842;-63
2022/06/28 16:07:37;;;;;;;;;;;;;;;;;;5081077;28;1258;-63
2022/06/28 16:10:03;;;;;;;;;;;;;;;;;;5081690;28;810;-63
2022/06/28 16:15:12;;;;;;;;;;;;;;;;;;5081780;28;602;-63
2022/06/28 16:17:37;;;;;;;;;;;;;;;;;;5081046;28;1175;-63
2022/06/28 16:20:04;;;;;;;;;;;;;;;;;;5081418;28;1886;-63
2022/06/28 16:22:29;;;;;;;;;;;;;;;;;;5080020;28;846;-63
2022/06/28 16:24:54;;;;;;;;;;;;;;;;;;5081432;28;936;-63
2022/06/28 16:27:19;;;;;;;;;;;;;;;;;;5080787;28;1183;-63
2022/06/28 16:29:44;;;;;;;;;;;;;;;;;;5081648;28;826;-64
2022/06/28 16:32:10;;;;;;;;;;;;;;;;;;5081216;28;826;-63
2022/06/28 16:34:35;;;;;;;;;;;;;;;;;;5081181;28;813;-63
2022/06/28 16:37:00;;;;;;;;;;;;;;;;;;5081159;28;1270;-63
2022/06/28 16:39:27;;;;;;;;;;;;;;;;;;5080905;28;1914;-63
2022/06/28 16:41:52;;;;;;;;;;;;;;;;;;5083185;28;845;-64
2022/06/28 16:44:17;;;;;;;;;;;;;;;;;;5087713;28;906;-63
2022/06/28 16:46:42;;;;;;;;;;;;;;;;;;5087526;28;1207;-63
2022/06/28 16:49:09;;;;;;;;;;;;;;;;;;5087718;28;1004;-63
2022/06/28 16:51:34;;;;;;;;;;;;;;;;;;5087932;28;909;-63
2022/06/28 16:53:59;;;;;;;;;;;;;;;;;;5087578;28;972;-63
2022/06/28 16:56:25;;;;;;;;;;;;;;;;;;5087435;28;1184;-63
2022/06/28 16:58:50;;;;;;;;;;;;;;;;;;5087512;28;1001;-63
2022/06/28 17:01:15;;;;;;;;;;;;;;;;;;5087830;28;1963;-63
2022/06/28 17:03:40;;;;;;;;;;;;;;;;;;5086389;28;956;-63
2022/06/28 17:07:20;;;;;;;;;;;;;;;;;;5087315;28;1262;-63
2022/06/28 17:08:52;;;;;;;;;;;;;;;;;;5087460;28;1198;-63
2022/06/28 17:11:17;;;;;;;;;;;;;;;;;;5087409;28;850;-63
2022/06/28 17:13:42;;;;;;;;;;;;;;;;;;5087607;28;817;-63
2022/06/28 17:16:07;;;;;;;;;;;;;;;;;;5087216;28;1199;-63
2022/06/28 17:18:33;;;;;;;;;;;;;;;;;;5087594;28;956;-63
2022/06/28 17:20:58;;;;;;;;;;;;;;;;;;5087211;28;1969;-63
2022/06/28 17:23:23;;;;;;;;;;;;;;;;;;5087625;28;842;-63
2022/06/28 17:25:48;;;;;;;;;;;;;;;;;;5087322;28;856;-63
2022/06/28 17:28:13;;;;;;;;;;;;;;;;;;5087151;28;1164;-63
2022/06/28 17:30:39;;;;;;;;;;;;;;;;;;5087158;28;806;-63
2022/06/28 17:33:04;;;;;;;;;;;;;;;;;;5087449;28;854;-63
2022/06/28 17:35:29;;;;;;;;;;;;;;;;;;5087237;28;877;-63
2022/06/28 17:37:54;;;;;;;;;;;;;;;;;;5086613;28;1211;-64